You are not logged in, Click here to log in
ICAO: VOGO Country: 印度果阿邦達波林,於印度海軍漢薩航空基地中的民航區進行營運。機場距瓦斯科·達伽馬4公里,距馬爾加奧2
Latitude: 15.3808 Longitude: 73.8314
Total Arrivals: 4 Total Departures: 3
Latest Arrival: AI975 (VOMM-VOGO)Stone. Chang Latest Departure: 9W2374 (VOGO-VABB)Stone. Chang
Scenery:
METAR : VOGO 210700Z 28008KT 6000 FEW012 BKN090 29/25 Q1009 NOSIG

果阿國際機場GOI